Atlantic - Newfoundland: Past 24 Hour Conditions

 

Cartwright Airport

11:00 AM AST 04 March 2015
Disclaimer

This table is a summary of hourly weather conditions for the past 24 hours.
Please note that these observations might not always be representative of weather conditions over their associated marine area.

Date / Time
(AST)
Wind(knots) Conditions Visibility(km) Pressure(kPa) Air tempC) Relative humidity(%) Dew pointC) Wind Chill
04 March 2015
11:00 SSW 12 Mostly Cloudy 24 100.4 -18 49 -27 -29
10:00 SSW 12 gust 19 Mostly Cloudy 24 100.5 -20 52 -27 -31
9:00 SSW 10 gust 17 Mostly Cloudy 24 100.5 -22 57 -28 -32
8:00 SW 14 gust 20 Mostly Cloudy 24 100.6 -23 58 -29 -36
7:00 SW 12 gust 18 Partly Cloudy 24 100.6 -24 58 -30 -36
6:00 SW 11 gust 23 Clear 24 100.6 -24 61 -30 -36
5:00 SW 11 Clear 24 100.6 -24 60 -30 -36
4:00 SSW 7 Clear 24 100.5 -24 56 -30 -33
3:00 SW 9 gust 17 Clear 24 100.5 -24 64 -28 -34
2:00 WSW 14 gust 19 Clear 24 100.4 -22 59 -28 -35
1:00 WSW 11 gust 23 Clear 24 100.4 -22 61 -27 -33
0:00 W 8 Clear 24 100.3 -21 58 -27 -30
03 March 2015
23:00 WNW 14 Drifting Snow 24 100.3 -19 54 -26 -31
22:00 W 9 gust 21 Drifting Snow 24 100.2 -19 56 -26 -28
21:00 WNW 17 gust 23 Drifting Snow 24 100.2 -18 61 -24 -31
20:00 WNW 15 gust 25 Drifting Snow 24 100.1 -18 63 -23 -29
19:00 WNW 19 gust 28 Drifting Snow 24 99.9 -17 66 -22 -29
18:00 WNW 16 gust 28 Drifting Snow 11 99.8 -16 71 -20 -27
17:00 NW 29 gust 42 Blowing Snow 3 99.6 -15 76 -19 -30
16:00 NW 31 gust 43 Blowing Snow 2 99.4 -15 77 -18 -29
15:00 NW 29 gust 42 Light Snow 2 99.3 -14 77 -17 -28
14:00 NW 31 gust 44 Light Snow 2 99.1 -12 80 -15 -25
13:00 NW 34 gust 42 Light Snow 1 99.0 -12 81 -14 -25
12:00 NW 29 gust 37 Light Snow 3 99.0 -11 81 -14 -24
11:00 NW 32 gust 42 Light Snow 0.8 99.0 -11 84 -13 -24

Zoom-in to make a selection

Map of Atlantic - Newfoundland marine weather areas Southwestern Grand Banks - 44138 Banquereau - 44139 Tail of the Bank - 44140 Nickerson Bank - 44251 Northeast Burgeo Bank - 44255 Blanc-Sablon Airport Cap Whittle Chevery Natashquan Airport Heath Point Miscou Island Grand Étang Ingonish Beach North Mountain St.Paul Island J.A. Douglas McCurdy Sydney Airport Charlottetown Airport East Point North Cape Argentia Bonavista Burgeo Cape Race Corner Brook Daniel's Harbour Englee Ferolle Point La Scie Port aux Basques Rocky Harbour Sagona Island St. Anthony Airport St. John's Int'l Airport St. Lawrence Stephenville Airport Twillingate Winterland Wreckhouse Cartwright Airport Mary's Harbour Grates Cove Pool's Island Marticot Island Long Pond Îles de la Madeleine Airport
Legend:
buoy Buoy
land station Land Station

Atlantic - Newfoundland Area

Another Region

What we are doing

Date modified: